Time;durP1;ratioP1;P1;durP2;ratioP2;P2;SDS_P1;SDS_P2;PMS_P1;PMS_P2;Temp;Humidity;BMP_temperature;BMP_pressure;BME280_temperature;BME280_humidity;BME280_pressure;Samples;Min_cycle;Max_cycle;Signal;HPM_P1;HPM_P2
2022/04/15 00:01:10;;;;;;;14.48;10.88;;;10.50;99.90;;;;;;5044265;28;20064;-42
2022/04/15 00:03:35;;;;;;;12.93;10.27;;;10.50;99.90;;;;;;5044817;28;20041;-43
2022/04/15 00:06:01;;;;;;;14.65;10.68;;;10.40;99.90;;;;;;5044201;28;20028;-42
2022/04/15 00:08:26;;;;;;;13.68;9.70;;;10.40;99.90;;;;;;5044181;28;20456;-43
2022/04/15 00:10:52;;;;;;;16.05;10.18;;;10.30;99.90;;;;;;5044865;28;20032;-41
2022/04/15 00:13:24;;;;;;;15.60;12.00;;;10.30;99.90;;;;;;5043802;28;20012;-43
2022/04/15 00:15:50;;;;;;;12.27;9.45;;;10.30;99.90;;;;;;5045079;28;20107;-43
2022/04/15 00:18:16;;;;;;;13.95;10.15;;;10.30;99.90;;;;;;5044262;28;20024;-42
2022/04/15 00:20:41;;;;;;;12.65;10.27;;;10.20;99.90;;;;;;5044407;28;20044;-43
2022/04/15 00:23:07;;;;;;;12.90;9.98;;;10.20;99.90;;;;;;5045296;28;20377;-42
2022/04/15 00:25:33;;;;;;;14.35;9.75;;;10.20;99.90;;;;;;5045251;28;20507;-42
2022/04/15 00:27:58;;;;;;;13.95;9.60;;;10.20;99.90;;;;;;5048467;28;20036;-43
2022/04/15 00:30:24;;;;;;;17.60;10.70;;;10.10;99.90;;;;;;5048106;28;20108;-43
2022/04/15 00:32:49;;;;;;;13.63;9.57;;;10.10;99.90;;;;;;5047652;28;20484;-43
2022/04/15 00:35:15;;;;;;;12.15;9.73;;;10.10;99.90;;;;;;5048118;28;20136;-42
2022/04/15 00:37:40;;;;;;;13.85;10.52;;;10.00;99.90;;;;;;5047723;28;20070;-43
2022/04/15 00:40:09;;;;;;;11.85;9.30;;;10.00;99.90;;;;;;5048243;28;20124;-43
2022/04/15 00:42:35;;;;;;;14.40;10.80;;;10.00;99.90;;;;;;5047716;28;20047;-42
2022/04/15 00:45:01;;;;;;;12.18;9.95;;;9.90;99.90;;;;;;5048851;28;20025;-41
2022/04/15 00:47:35;;;;;;;12.85;9.77;;;9.90;99.90;;;;;;5047018;28;20032;-40
2022/04/15 00:50:01;;;;;;;12.48;9.85;;;9.90;99.90;;;;;;5048132;28;20032;-40
2022/04/15 00:52:33;;;;;;;11.93;10.05;;;9.90;99.90;;;;;;5047770;28;20029;-43
2022/04/15 00:55:02;;;;;;;12.77;10.13;;;9.90;99.90;;;;;;5047573;28;20045;-41
2022/04/15 00:57:30;;;;;;;14.75;10.10;;;9.90;99.90;;;;;;5047552;28;20043;-42
2022/04/15 01:00:00;;;;;;;13.88;10.73;;;9.90;99.90;;;;;;5048361;28;20154;-43
2022/04/15 01:02:27;;;;;;;14.55;10.30;;;9.80;99.90;;;;;;5046022;28;20037;-41
2022/04/15 01:04:55;;;;;;;11.82;10.25;;;9.80;99.90;;;;;;5048028;28;20040;-41
2022/04/15 01:07:25;;;;;;;12.43;9.85;;;9.80;99.90;;;;;;5046747;28;20033;-43
2022/04/15 01:09:52;;;;;;;12.30;9.70;;;9.70;99.90;;;;;;5047769;28;20518;-43
2022/04/15 01:12:22;;;;;;;14.18;10.43;;;9.70;99.90;;;;;;5047239;28;20020;-41
2022/04/15 01:14:51;;;;;;;13.05;10.10;;;9.70;99.90;;;;;;5046465;28;20029;-41
2022/04/15 01:17:17;;;;;;;14.55;10.07;;;9.70;99.90;;;;;;5047810;28;20510;-40
2022/04/15 01:19:42;;;;;;;13.82;10.00;;;9.70;99.90;;;;;;5047021;28;20761;-41
2022/04/15 01:22:13;;;;;;;16.63;11.50;;;9.60;99.90;;;;;;5046702;28;20079;-39
2022/04/15 01:24:38;;;;;;;14.43;10.27;;;9.60;99.90;;;;;;5047667;28;20028;-42
2022/04/15 01:27:07;;;;;;;14.15;10.35;;;9.60;99.90;;;;;;5047324;28;20051;-39
2022/04/15 01:29:41;;;;;;;13.02;10.02;;;9.50;99.90;;;;;;5046237;28;20032;-42
2022/04/15 01:32:08;;;;;;;16.50;11.55;;;9.50;99.90;;;;;;5047689;28;20032;-41
2022/04/15 01:34:36;;;;;;;14.50;11.40;;;9.50;99.90;;;;;;5046968;28;20047;-43
2022/04/15 01:37:03;;;;;;;16.95;12.10;;;9.40;99.90;;;;;;5045684;28;20044;-42
2022/04/15 01:39:31;;;;;;;16.40;11.88;;;9.40;99.90;;;;;;5046878;28;20025;-41
2022/04/15 01:41:57;;;;;;;15.50;12.20;;;9.40;99.90;;;;;;5047578;28;20037;-44
2022/04/15 01:44:23;;;;;;;18.55;13.05;;;9.30;99.90;;;;;;5046100;28;20044;-45
2022/04/15 01:46:49;;;;;;;15.75;11.90;;;9.30;99.90;;;;;;5047073;28;20087;-41
2022/04/15 01:49:14;;;;;;;16.25;10.98;;;9.30;99.90;;;;;;5046776;28;20417;-42
2022/04/15 01:51:40;;;;;;;17.40;10.75;;;9.20;99.90;;;;;;5045959;28;20029;-42
2022/04/15 01:54:05;;;;;;;16.45;10.18;;;9.20;99.90;;;;;;5047067;28;20389;-41
2022/04/15 01:56:31;;;;;;;14.88;9.60;;;9.20;99.90;;;;;;5046032;28;20056;-41
2022/04/15 01:58:56;;;;;;;13.32;9.95;;;9.10;99.90;;;;;;5045797;28;20057;-41
2022/04/15 02:01:22;;;;;;;10.35;9.30;;;9.10;99.90;;;;;;5046473;28;20254;-41
2022/04/15 02:03:47;;;;;;;11.27;9.93;;;9.00;99.90;;;;;;5045164;28;20027;-42
2022/04/15 02:06:13;;;;;;;11.23;9.75;;;8.90;99.90;;;;;;5046193;28;20087;-43
2022/04/15 02:08:41;;;;;;;18.17;9.75;;;8.80;99.90;;;;;;5046356;28;20400;-41
2022/04/15 02:11:07;;;;;;;15.95;10.57;;;8.70;99.90;;;;;;5035282;28;20596;-43
2022/04/15 02:13:32;;;;;;;21.35;11.02;;;8.70;99.90;;;;;;5046015;28;20033;-41
2022/04/15 02:15:58;;;;;;;21.20;10.02;;;8.70;99.90;;;;;;5046242;28;20064;-42
2022/04/15 02:18:26;;;;;;;13.63;10.30;;;8.60;99.90;;;;;;5045097;28;20086;-42
2022/04/15 02:20:52;;;;;;;13.65;10.45;;;8.60;99.90;;;;;;5045910;28;20052;-42
2022/04/15 02:23:17;;;;;;;10.85;9.07;;;8.50;99.90;;;;;;5046267;28;20028;-41
2022/04/15 02:25:43;;;;;;;10.50;8.90;;;8.50;99.90;;;;;;5045396;28;20878;-42
2022/04/15 02:28:08;;;;;;;15.88;10.30;;;8.50;99.90;;;;;;5046150;28;20033;-41
2022/04/15 02:30:34;;;;;;;13.50;10.52;;;8.40;99.90;;;;;;5045798;28;20097;-39
2022/04/15 02:32:59;;;;;;;17.83;8.93;;;8.40;99.90;;;;;;5045879;28;20033;-42
2022/04/15 02:35:25;;;;;;;19.65;9.40;;;8.40;99.90;;;;;;5045411;28;20111;-41
2022/04/15 02:37:50;;;;;;;13.25;9.95;;;8.50;99.90;;;;;;5046356;28;20040;-40
2022/04/15 02:40:16;;;;;;;11.02;9.52;;;8.50;99.90;;;;;;5045191;28;20107;-44
2022/04/15 02:42:41;;;;;;;13.55;8.85;;;8.50;99.90;;;;;;5045784;28;20525;-41
2022/04/15 02:45:07;;;;;;;9.90;8.65;;;8.60;99.90;;;;;;5046380;28;20508;-40
2022/04/15 02:47:33;;;;;;;11.27;9.52;;;8.70;99.90;;;;;;5044322;28;20033;-42
2022/04/15 02:49:58;;;;;;;12.15;9.23;;;8.70;99.90;;;;;;5045885;28;20025;-41
2022/04/15 02:52:24;;;;;;;9.40;8.43;;;8.70;99.90;;;;;;5044971;28;20017;-42
2022/04/15 02:54:49;;;;;;;10.27;8.73;;;8.80;99.90;;;;;;5045623;28;20029;-42
2022/04/15 02:57:15;;;;;;;10.45;8.93;;;8.80;99.90;;;;;;5045099;28;20057;-40
2022/04/15 02:59:40;;;;;;;9.60;8.60;;;8.80;99.90;;;;;;5045225;28;20444;-43
2022/04/15 03:02:09;;;;;;;12.23;9.00;;;8.90;99.90;;;;;;5045034;28;20037;-41
2022/04/15 03:04:34;;;;;;;11.02;8.93;;;8.90;99.90;;;;;;5025224;28;20031;-42
2022/04/15 03:07:00;;;;;;;10.57;8.20;;;9.00;99.90;;;;;;5039236;28;20032;-42
2022/04/15 03:09:25;;;;;;;10.30;8.82;;;9.00;99.90;;;;;;5045253;28;20025;-41
2022/04/15 03:11:51;;;;;;;12.02;9.40;;;9.10;99.90;;;;;;5045947;28;20159;-41
2022/04/15 03:14:17;;;;;;;10.70;9.32;;;9.10;99.90;;;;;;5044670;28;20029;-41
2022/04/15 03:16:43;;;;;;;12.18;9.48;;;9.10;99.90;;;;;;5044361;28;20044;-43
2022/04/15 03:19:09;;;;;;;13.65;10.30;;;9.20;99.90;;;;;;5045680;28;20037;-43
2022/04/15 03:21:36;;;;;;;12.07;10.20;;;9.20;99.90;;;;;;5043711;28;20082;-41
2022/04/15 03:24:02;;;;;;;14.00;11.05;;;9.20;99.90;;;;;;5045199;28;20112;-41
2022/04/15 03:26:27;;;;;;;12.65;9.32;;;9.20;99.90;;;;;;5045067;28;20071;-41
2022/04/15 03:28:53;;;;;;;12.48;10.35;;;9.20;99.90;;;;;;5044458;28;20029;-41
2022/04/15 03:31:19;;;;;;;13.38;10.80;;;9.20;99.90;;;;;;5044930;28;20548;-41
2022/04/15 03:33:45;;;;;;;12.88;10.18;;;9.20;99.90;;;;;;5045252;28;20036;-40
2022/04/15 03:36:11;;;;;;;13.35;10.30;;;9.20;99.90;;;;;;5044289;28;20061;-41
2022/04/15 03:38:37;;;;;;;15.65;10.38;;;9.30;99.90;;;;;;5044365;28;20092;-42
2022/04/15 03:41:02;;;;;;;13.93;9.65;;;9.30;99.90;;;;;;5045295;28;20045;-42
2022/04/15 03:43:29;;;;;;;13.57;10.82;;;9.30;99.90;;;;;;5043770;28;20040;-41
2022/04/15 03:45:55;;;;;;;13.23;10.48;;;9.30;99.90;;;;;;5045815;28;20032;-42
2022/04/15 03:48:20;;;;;;;13.93;9.93;;;9.40;99.90;;;;;;5044573;28;20033;-41
2022/04/15 03:50:46;;;;;;;13.52;10.80;;;9.40;99.90;;;;;;5044024;28;20033;-42
2022/04/15 03:53:11;;;;;;;11.20;9.00;;;9.40;99.90;;;;;;5044653;28;20033;-44
2022/04/15 03:55:37;;;;;;;12.23;9.45;;;9.40;99.90;;;;;;5044573;28;20083;-42
2022/04/15 03:58:02;;;;;;;11.82;9.60;;;9.40;99.90;;;;;;5043984;28;20240;-42
2022/04/15 04:00:28;;;;;;;16.50;11.45;;;9.40;99.90;;;;;;5046804;28;20025;-43
2022/04/15 04:02:54;;;;;;;13.15;9.70;;;9.40;99.90;;;;;;5048894;28;20039;-42
2022/04/15 04:05:23;;;;;;;11.85;9.25;;;9.30;99.90;;;;;;5047858;28;20384;-42
2022/04/15 04:07:50;;;;;;;12.85;9.48;;;9.30;99.90;;;;;;5049000;28;20028;-43
2022/04/15 04:10:17;;;;;;;14.18;10.10;;;9.30;99.90;;;;;;5047936;28;20532;-43
2022/04/15 04:12:44;;;;;;;13.85;9.55;;;9.30;99.90;;;;;;5048648;28;20029;-42
2022/04/15 04:15:11;;;;;;;14.50;10.50;;;9.30;99.90;;;;;;5048718;28;20063;-41
2022/04/15 04:17:37;;;;;;;11.55;8.95;;;9.30;99.90;;;;;;5047468;28;20078;-42
2022/04/15 04:20:04;;;;;;;13.27;9.13;;;9.30;99.90;;;;;;5048720;28;20033;-42
2022/04/15 04:22:34;;;;;;;14.00;8.43;;;9.30;99.90;;;;;;5047987;28;20033;-43
2022/04/15 04:25:00;;;;;;;10.75;7.78;;;9.30;99.90;;;;;;5047524;28;20544;-41
2022/04/15 04:27:26;;;;;;;13.48;8.75;;;9.30;99.90;;;;;;5048473;28;20131;-42
2022/04/15 04:29:52;;;;;;;11.38;8.35;;;9.30;99.90;;;;;;5047853;28;20072;-43
2022/04/15 04:32:18;;;;;;;12.45;8.55;;;9.30;99.90;;;;;;5047682;28;20029;-42
2022/04/15 04:34:45;;;;;;;9.98;7.97;;;9.20;99.90;;;;;;5047845;28;20067;-42
2022/04/15 04:37:10;;;;;;;7.70;6.95;;;9.20;99.90;;;;;;5048946;28;20021;-42
2022/04/15 04:39:36;;;;;;;8.75;6.95;;;9.10;99.90;;;;;;5047006;28;20078;-42
2022/04/15 04:42:03;;;;;;;9.18;6.70;;;9.00;99.90;;;;;;5048269;28;20156;-41
2022/04/15 04:44:29;;;;;;;8.13;7.32;;;8.90;99.90;;;;;;5047361;28;20013;-44
2022/04/15 04:46:56;;;;;;;10.05;7.28;;;8.90;99.90;;;;;;5047578;28;20113;-39
2022/04/15 04:49:22;;;;;;;8.93;7.05;;;8.80;99.90;;;;;;5048316;28;20104;-43
2022/04/15 04:51:48;;;;;;;9.18;6.55;;;8.70;99.90;;;;;;5047923;28;20029;-43
2022/04/15 04:54:14;;;;;;;9.32;6.75;;;8.70;99.90;;;;;;5047164;28;20021;-42
2022/04/15 04:56:39;;;;;;;10.73;7.35;;;8.70;99.90;;;;;;5047844;28;20048;-42
2022/04/15 04:59:05;;;;;;;11.52;7.45;;;8.60;99.90;;;;;;5048076;28;20487;-42
2022/04/15 05:01:30;;;;;;;11.40;7.43;;;8.60;99.90;;;;;;5046147;28;20082;-39
2022/04/15 05:03:56;;;;;;;10.85;7.90;;;8.60;99.90;;;;;;5048515;28;20017;-41
2022/04/15 05:06:21;;;;;;;10.13;7.30;;;8.60;99.90;;;;;;5047123;28;20587;-41
2022/04/15 05:08:47;;;;;;;9.85;7.03;;;8.60;99.90;;;;;;5046487;28;20583;-42
2022/04/15 05:11:12;;;;;;;11.88;7.90;;;8.60;99.90;;;;;;5047197;28;20032;-43
2022/04/15 05:13:38;;;;;;;9.50;8.35;;;8.60;99.90;;;;;;5046567;28;20037;-43
2022/04/15 05:16:03;;;;;;;10.05;7.85;;;8.60;99.90;;;;;;5047713;28;20064;-41
2022/04/15 05:18:29;;;;;;;10.77;7.95;;;8.60;99.90;;;;;;5046951;28;20025;-42
2022/04/15 05:20:54;;;;;;;9.93;8.00;;;8.60;99.90;;;;;;5047064;28;20029;-42
2022/04/15 05:23:20;;;;;;;12.13;7.43;;;8.60;99.90;;;;;;5047598;28;20079;-43
2022/04/15 05:25:46;;;;;;;8.73;6.93;;;8.60;99.90;;;;;;5047395;28;20043;-42
2022/04/15 05:28:11;;;;;;;9.20;7.60;;;8.60;99.90;;;;;;5047474;28;20105;-40
2022/04/15 05:30:37;;;;;;;9.68;8.30;;;8.60;99.90;;;;;;5047098;28;20029;-44
2022/04/15 05:33:02;;;;;;;12.93;8.65;;;8.60;99.90;;;;;;5047443;28;20047;-42
2022/04/15 05:35:28;;;;;;;11.52;8.07;;;8.60;99.90;;;;;;5049445;28;20043;-41
2022/04/15 05:37:53;;;;;;;12.75;8.50;;;8.60;99.90;;;;;;5047250;28;20420;-43
2022/04/15 05:40:19;;;;;;;8.52;6.60;;;8.60;99.90;;;;;;5047460;28;20021;-42
2022/04/15 05:42:45;;;;;;;10.40;7.72;;;8.60;99.90;;;;;;5045909;28;20037;-43
2022/04/15 05:45:10;;;;;;;9.57;7.40;;;8.60;99.90;;;;;;5044165;28;20029;-44
2022/04/15 05:47:37;;;;;;;10.13;7.45;;;8.60;99.90;;;;;;5045143;28;20060;-43
2022/04/15 05:50:03;;;;;;;9.70;6.93;;;8.60;99.90;;;;;;5045944;28;20540;-43
2022/04/15 05:52:28;;;;;;;10.57;7.20;;;8.60;99.90;;;;;;5045775;28;20020;-46
2022/04/15 05:54:54;;;;;;;10.02;6.60;;;8.60;99.90;;;;;;5046172;28;20576;-44
2022/04/15 05:57:19;;;;;;;9.30;6.82;;;8.60;99.90;;;;;;5045567;28;20029;-43
2022/04/15 05:59:45;;;;;;;7.90;6.82;;;8.70;99.90;;;;;;5045701;28;20060;-43
2022/04/15 06:02:10;;;;;;;10.35;7.43;;;8.70;99.90;;;;;;5046016;28;20037;-43
2022/04/15 06:04:36;;;;;;;7.82;6.63;;;8.70;99.90;;;;;;5045534;28;20120;-42
2022/04/15 06:07:02;;;;;;;9.65;7.45;;;8.70;99.90;;;;;;5045741;28;20107;-43
2022/04/15 06:09:27;;;;;;;9.95;7.32;;;8.70;99.90;;;;;;5045678;28;20741;-41
2022/04/15 06:11:55;;;;;;;10.40;7.20;;;8.70;99.90;;;;;;5045675;28;20067;-43
2022/04/15 06:14:22;;;;;;;8.18;6.38;;;8.70;99.90;;;;;;5045915;28;20017;-41
2022/04/15 06:16:47;;;;;;;9.20;6.65;;;8.70;99.90;;;;;;5044399;28;20660;-41
2022/04/15 06:19:14;;;;;;;10.82;6.80;;;8.70;99.90;;;;;;5045598;28;20025;-42
2022/04/15 06:21:40;;;;;;;7.07;5.88;;;8.70;99.90;;;;;;5045260;28;20056;-41
2022/04/15 06:24:08;;;;;;;8.55;6.80;;;8.80;99.90;;;;;;5044038;28;20029;-42
2022/04/15 06:26:34;;;;;;;7.85;6.03;;;8.80;99.90;;;;;;5046362;28;20112;-44
2022/04/15 06:29:00;;;;;;;7.03;5.57;;;8.80;99.90;;;;;;5046727;28;20040;-41
2022/04/15 06:31:25;;;;;;;9.20;5.47;;;8.90;99.90;;;;;;5044742;28;20033;-43
2022/04/15 06:33:52;;;;;;;7.40;5.35;;;8.90;99.90;;;;;;5043835;28;20019;-41
2022/04/15 06:36:19;;;;;;;9.15;5.65;;;8.90;99.90;;;;;;5042923;28;20036;-43
2022/04/15 06:38:44;;;;;;;8.77;4.35;;;8.90;99.90;;;;;;5044262;28;20032;-41
2022/04/15 06:41:10;;;;;;;7.07;5.18;;;9.00;99.90;;;;;;5045986;28;20037;-44
2022/04/15 06:43:35;;;;;;;7.03;4.80;;;9.00;99.90;;;;;;5045031;28;20736;-45
2022/04/15 06:46:03;;;;;;;8.80;4.65;;;9.00;99.90;;;;;;5045629;28;20032;-41
2022/04/15 06:48:29;;;;;;;5.50;4.47;;;9.10;99.90;;;;;;5045342;28;20033;-42
2022/04/15 06:50:54;;;;;;;6.05;4.78;;;9.10;99.90;;;;;;5046282;28;20423;-42
2022/04/15 06:53:23;;;;;;;5.68;4.82;;;9.10;99.90;;;;;;5045063;28;20048;-41
2022/04/15 06:55:53;;;;;;;5.63;4.75;;;9.20;99.90;;;;;;5045474;28;20035;-43
2022/04/15 06:58:19;;;;;;;5.47;4.47;;;9.20;99.90;;;;;;5044725;28;20546;-42
2022/04/15 07:00:46;;;;;;;4.30;3.90;;;9.30;99.90;;;;;;5045090;28;20039;-44
2022/04/15 07:03:12;;;;;;;9.10;4.40;;;9.30;99.90;;;;;;5046111;28;20028;-40
2022/04/15 07:05:41;;;;;;;5.32;4.20;;;9.40;99.90;;;;;;5045592;28;20025;-44
2022/04/15 07:08:09;;;;;;;6.68;4.25;;;9.40;99.90;;;;;;5044896;28;20036;-44
2022/04/15 07:10:35;;;;;;;5.40;3.75;;;9.40;99.90;;;;;;5044872;28;20051;-42
2022/04/15 07:13:02;;;;;;;4.07;3.78;;;9.50;99.90;;;;;;5046137;28;20099;-42
2022/04/15 07:15:28;;;;;;;4.10;3.53;;;9.60;99.90;;;;;;5044547;28;20515;-43
2022/04/15 07:17:55;;;;;;;3.92;3.35;;;9.80;99.90;;;;;;5045159;28;20444;-43
2022/04/15 07:20:21;;;;;;;3.78;3.20;;;10.10;99.90;;;;;;5043706;28;20464;-42
2022/04/15 07:22:56;;;;;;;3.95;3.10;;;10.30;99.90;;;;;;5045430;28;20090;-44
2022/04/15 07:25:22;;;;;;;3.15;2.85;;;10.50;99.90;;;;;;5045187;28;20017;-42
2022/04/15 07:27:48;;;;;;;5.75;3.65;;;10.70;99.90;;;;;;5044608;28;20035;-42
2022/04/15 07:30:13;;;;;;;3.28;2.72;;;10.80;99.90;;;;;;5044305;28;20036;-42
2022/04/15 07:32:39;;;;;;;3.40;2.97;;;10.80;99.90;;;;;;5044352;28;20128;-42
2022/04/15 07:35:05;;;;;;;5.80;2.92;;;10.90;99.90;;;;;;5044872;28;20036;-43
2022/04/15 07:37:30;;;;;;;3.45;2.88;;;11.00;99.90;;;;;;5044976;28;20051;-43
2022/04/15 07:39:56;;;;;;;5.20;2.63;;;11.00;99.90;;;;;;5044933;28;20017;-42
2022/04/15 07:42:21;;;;;;;4.47;2.88;;;11.00;99.90;;;;;;5045020;28;20025;-42
2022/04/15 07:44:47;;;;;;;5.47;2.70;;;10.90;99.90;;;;;;5044955;28;20025;-42
2022/04/15 07:47:12;;;;;;;3.75;2.60;;;10.90;99.90;;;;;;5045152;28;20033;-43
2022/04/15 07:49:38;;;;;;;5.22;4.07;;;10.80;99.90;;;;;;5044502;28;20396;-39
2022/04/15 07:52:04;;;;;;;3.15;2.42;;;10.70;99.90;;;;;;5044997;28;20458;-40
2022/04/15 07:54:30;;;;;;;2.95;2.30;;;10.60;99.90;;;;;;5045047;28;20030;-42
2022/04/15 07:56:56;;;;;;;2.30;2.10;;;10.60;99.90;;;;;;5044285;28;20029;-42
2022/04/15 07:59:21;;;;;;;10.30;2.92;;;10.60;99.90;;;;;;5044688;28;20048;-44
2022/04/15 08:01:47;;;;;;;4.00;2.75;;;10.60;99.90;;;;;;5045044;28;20530;-42
2022/04/15 08:04:13;;;;;;;4.03;2.70;;;10.60;99.90;;;;;;5043995;28;20068;-43
2022/04/15 08:06:39;;;;;;;4.35;2.45;;;10.60;99.90;;;;;;5044689;28;20041;-44
2022/04/15 08:09:04;;;;;;;3.67;2.42;;;10.60;99.90;;;;;;5044646;28;20029;-42
2022/04/15 08:11:30;;;;;;;4.07;2.30;;;10.60;99.90;;;;;;5043994;28;20021;-42
2022/04/15 08:13:56;;;;;;;3.70;2.60;;;10.60;99.90;;;;;;5045161;28;20044;-42
2022/04/15 08:16:23;;;;;;;4.32;2.80;;;10.60;99.90;;;;;;5043746;28;20508;-42
2022/04/15 08:18:49;;;;;;;5.38;2.88;;;10.50;99.90;;;;;;5045140;28;20037;-41
2022/04/15 08:21:15;;;;;;;4.00;2.42;;;10.50;99.90;;;;;;5044302;28;20036;-43
2022/04/15 08:23:41;;;;;;;3.38;2.40;;;10.60;99.90;;;;;;5042347;28;20666;-41
2022/04/15 08:26:06;;;;;;;4.38;2.70;;;10.60;99.90;;;;;;5045056;28;20124;-42
2022/04/15 08:28:32;;;;;;;2.83;2.40;;;10.60;99.90;;;;;;5044125;28;20020;-42
2022/04/15 08:30:57;;;;;;;3.45;2.55;;;10.70;99.90;;;;;;5044426;28;20477;-42
2022/04/15 08:33:23;;;;;;;5.10;2.95;;;10.70;99.90;;;;;;5044590;28;20411;-39
2022/04/15 08:35:49;;;;;;;7.57;3.03;;;10.70;99.90;;;;;;5045110;28;20121;-38
2022/04/15 08:38:15;;;;;;;3.50;2.80;;;10.70;99.90;;;;;;5043815;28;20456;-38
2022/04/15 08:40:46;;;;;;;4.03;2.60;;;10.70;99.90;;;;;;5044426;28;20098;-41
2022/04/15 08:43:11;;;;;;;4.20;2.47;;;10.70;99.90;;;;;;5045518;28;20142;-41
2022/04/15 08:45:40;;;;;;;4.93;2.80;;;10.70;99.90;;;;;;5044379;28;20215;-42
2022/04/15 08:48:07;;;;;;;4.28;2.60;;;10.80;99.90;;;;;;5048633;28;20054;-39
2022/04/15 08:50:32;;;;;;;3.30;2.70;;;10.80;99.90;;;;;;5047750;28;20837;-41
2022/04/15 08:52:59;;;;;;;4.50;2.92;;;10.80;99.90;;;;;;5047137;28;20032;-42
2022/04/15 08:55:29;;;;;;;3.72;2.70;;;10.80;99.90;;;;;;5048005;28;20032;-41
2022/04/15 08:57:56;;;;;;;4.25;3.00;;;10.80;99.90;;;;;;5047810;28;20135;-43
2022/04/15 09:00:23;;;;;;;4.00;3.08;;;10.80;99.90;;;;;;5046918;28;20021;-43
2022/04/15 09:02:50;;;;;;;5.13;3.03;;;10.80;99.90;;;;;;5047950;28;20047;-38
2022/04/15 09:05:28;;;;;;;5.88;2.95;;;10.90;99.90;;;;;;5047535;28;20491;-43
2022/04/15 09:08:05;;;;;;;4.80;2.72;;;10.90;99.90;;;;;;5047083;28;20112;-42
2022/04/15 09:10:33;;;;;;;4.57;2.85;;;10.90;99.90;;;;;;5039399;28;20517;-42
2022/04/15 09:12:59;;;;;;;4.53;2.90;;;10.90;99.90;;;;;;5047071;28;20049;-42
2022/04/15 09:15:25;;;;;;;4.55;3.00;;;10.90;99.90;;;;;;5047416;28;20517;-42
2022/04/15 09:17:52;;;;;;;5.18;3.00;;;10.90;99.90;;;;;;5048186;28;20041;-43
2022/04/15 09:20:18;;;;;;;3.58;2.80;;;10.90;99.90;;;;;;5046554;28;20112;-41
2022/04/15 09:22:44;;;;;;;4.70;2.97;;;11.00;99.90;;;;;;5047323;28;20037;-43
2022/04/15 09:25:10;;;;;;;3.38;2.70;;;11.00;99.90;;;;;;5047843;28;20079;-44
2022/04/15 09:27:37;;;;;;;3.45;2.60;;;11.10;99.90;;;;;;5046990;28;20029;-43
2022/04/15 09:30:04;;;;;;;6.13;2.92;;;11.10;99.90;;;;;;5047602;28;20027;-41
2022/04/15 09:32:29;;;;;;;5.32;2.90;;;11.10;99.90;;;;;;5046895;28;20120;-43
2022/04/15 09:34:56;;;;;;;3.20;2.58;;;11.20;99.90;;;;;;5046695;28;20135;-43
2022/04/15 09:37:30;;;;;;;6.70;3.05;;;11.20;99.90;;;;;;5047332;28;20029;-42
2022/04/15 09:40:25;;;;;;;5.00;3.97;;;11.30;99.90;;;;;;5047886;28;20021;-42
2022/04/15 09:42:51;;;;;;;4.88;2.85;;;11.30;99.90;;;;;;5026686;28;20045;-43
2022/04/15 09:45:19;;;;;;;6.18;2.90;;;11.40;99.90;;;;;;5040739;28;20021;-42
2022/04/15 09:47:59;;;;;;;5.75;2.78;;;11.30;99.90;;;;;;5046726;28;20028;-42
2022/04/15 09:50:36;;;;;;;6.13;3.67;;;11.40;99.90;;;;;;5046945;28;20029;-44
2022/04/15 09:53:23;;;;;;;3.67;2.97;;;11.30;99.90;;;;;;5047156;28;20032;-40
2022/04/15 09:55:50;;;;;;;5.03;3.20;;;11.30;99.90;;;;;;5046250;28;20116;-41
2022/04/15 09:58:20;;;;;;;5.28;3.58;;;11.20;99.90;;;;;;5045900;28;20043;-41
2022/04/15 10:00:49;;;;;;;3.33;3.03;;;11.30;99.90;;;;;;5046705;28;20029;-41
2022/04/15 10:03:25;;;;;;;6.43;3.80;;;11.30;99.90;;;;;;5045905;28;20060;-42
2022/04/15 10:05:56;;;;;;;4.70;3.60;;;11.40;99.90;;;;;;5045643;28;20043;-41
2022/04/15 10:08:23;;;;;;;4.80;3.97;;;11.30;99.90;;;;;;5043429;28;20024;-41
2022/04/15 10:10:49;;;;;;;3.97;3.40;;;11.30;99.90;;;;;;5045345;28;20441;-41
2022/04/15 10:13:15;;;;;;;5.03;3.90;;;11.30;99.90;;;;;;5046639;28;20568;-42
2022/04/15 10:15:42;;;;;;;6.22;4.28;;;11.30;99.90;;;;;;5046417;28;20021;-43
2022/04/15 10:18:08;;;;;;;5.30;4.18;;;11.40;99.90;;;;;;5046548;28;20059;-44
2022/04/15 10:20:37;;;;;;;6.20;3.55;;;11.40;99.90;;;;;;5045878;28;20037;-43
2022/04/15 10:23:06;;;;;;;4.72;3.45;;;11.40;99.90;;;;;;5044695;28;20029;-42
2022/04/15 10:25:33;;;;;;;4.93;4.00;;;11.50;99.90;;;;;;5046116;28;20025;-42
2022/04/15 10:28:04;;;;;;;7.53;4.60;;;11.40;99.90;;;;;;5046771;28;20040;-40
2022/04/15 10:30:30;;;;;;;4.97;3.80;;;11.40;99.90;;;;;;5045353;28;20025;-41
2022/04/15 10:32:58;;;;;;;6.18;4.18;;;11.50;99.90;;;;;;5046357;28;20044;-42
2022/04/15 10:35:27;;;;;;;5.13;3.95;;;11.50;99.90;;;;;;5045124;28;20025;-42
2022/04/15 10:37:54;;;;;;;5.07;3.60;;;11.70;99.90;;;;;;5045399;28;20029;-40
2022/04/15 10:40:33;;;;;;;6.82;4.57;;;11.70;99.90;;;;;;5046230;28;20495;-41
2022/04/15 10:43:18;;;;;;;4.88;4.32;;;11.70;99.90;;;;;;5045082;28;20477;-43
2022/04/15 10:45:44;;;;;;;6.43;4.50;;;11.70;99.90;;;;;;5045754;28;20033;-43
2022/04/15 10:48:09;;;;;;;6.20;4.45;;;11.80;99.90;;;;;;5045730;28;20107;-44
2022/04/15 10:50:35;;;;;;;5.82;4.63;;;11.80;99.90;;;;;;5045705;28;20035;-43
2022/04/15 10:53:25;;;;;;;5.88;4.20;;;11.90;99.90;;;;;;5044796;28;20052;-42
2022/04/15 10:56:05;;;;;;;12.02;6.32;;;11.90;99.90;;;;;;5045928;28;20029;-42
2022/04/15 10:58:31;;;;;;;8.57;5.93;;;11.90;99.90;;;;;;5043631;28;20044;-42
2022/04/15 11:01:19;;;;;;;8.77;5.75;;;11.90;99.90;;;;;;5046405;28;20091;-42
2022/04/15 11:03:56;;;;;;;7.75;4.88;;;11.80;99.90;;;;;;5044696;28;20021;-44
2022/04/15 11:06:28;;;;;;;5.82;4.85;;;11.90;99.90;;;;;;5045717;28;20048;-44
2022/04/15 11:08:54;;;;;;;6.93;4.95;;;11.90;99.90;;;;;;5044853;28;20036;-43
2022/04/15 11:11:39;;;;;;;6.70;4.95;;;11.90;99.90;;;;;;5044656;28;20468;-44
2022/04/15 11:14:04;;;;;;;5.30;4.57;;;11.90;99.90;;;;;;5044563;28;20035;-42
2022/04/15 11:16:43;;;;;;;5.45;4.80;;;12.00;99.90;;;;;;5045317;28;20025;-42
2022/04/15 11:19:11;;;;;;;7.20;5.07;;;12.00;99.90;;;;;;5045949;28;20049;-44
2022/04/15 11:21:40;;;;;;;7.90;5.43;;;12.10;99.90;;;;;;5045218;28;20128;-42
2022/04/15 11:24:10;;;;;;;7.65;5.13;;;12.10;99.90;;;;;;5045173;28;20029;-42
2022/04/15 11:26:38;;;;;;;7.03;5.43;;;12.20;99.90;;;;;;5044320;28;20079;-41
2022/04/15 11:29:06;;;;;;;6.68;5.35;;;12.20;99.90;;;;;;5045068;28;20565;-42
2022/04/15 11:31:36;;;;;;;6.82;4.88;;;12.20;99.90;;;;;;5045367;28;20063;-42
2022/04/15 11:34:07;;;;;;;7.65;5.72;;;12.20;99.90;;;;;;5044509;28;20552;-42
2022/04/15 11:36:35;;;;;;;6.10;5.50;;;12.20;99.90;;;;;;5044609;28;20085;-41
2022/04/15 11:39:03;;;;;;;7.18;5.15;;;12.20;99.90;;;;;;5045524;28;20392;-40
2022/04/15 11:41:29;;;;;;;7.80;4.75;;;12.30;99.90;;;;;;5044590;28;20048;-42
2022/04/15 11:43:59;;;;;;;8.18;5.68;;;12.30;99.90;;;;;;5045310;28;20025;-43
2022/04/15 11:46:24;;;;;;;7.88;6.05;;;12.20;99.90;;;;;;5045320;28;20025;-42
2022/04/15 11:48:50;;;;;;;6.70;5.40;;;12.20;99.90;;;;;;5045274;28;20013;-39
2022/04/15 11:51:17;;;;;;;6.00;4.90;;;12.30;99.90;;;;;;5045486;28;20044;-41
2022/04/15 11:53:43;;;;;;;5.72;5.13;;;12.40;99.90;;;;;;5045558;28;20060;-41
2022/04/15 11:56:09;;;;;;;6.22;5.25;;;12.40;99.90;;;;;;5045186;28;20056;-43
2022/04/15 11:58:35;;;;;;;9.27;5.72;;;12.50;99.90;;;;;;5044658;28;20124;-42
2022/04/15 12:01:02;;;;;;;7.05;5.30;;;12.60;99.90;;;;;;5045142;28;20567;-40
2022/04/15 12:03:28;;;;;;;5.90;5.18;;;12.60;99.90;;;;;;5043703;28;20517;-42
2022/04/15 12:05:57;;;;;;;4.90;4.40;;;12.70;99.90;;;;;;5045649;28;20084;-42
2022/04/15 12:08:24;;;;;;;4.63;4.13;;;12.80;99.90;;;;;;5044761;28;20040;-43
2022/04/15 12:10:50;;;;;;;8.15;4.70;;;12.80;99.90;;;;;;5044441;28;20029;-42
2022/04/15 12:13:17;;;;;;;5.68;4.68;;;12.90;99.90;;;;;;5045029;28;20107;-42
2022/04/15 12:15:44;;;;;;;5.88;4.68;;;12.90;99.90;;;;;;5044473;28;20029;-44
2022/04/15 12:18:10;;;;;;;6.38;4.50;;;12.90;99.90;;;;;;5045451;28;20021;-42
2022/04/15 12:20:38;;;;;;;5.63;4.68;;;13.00;99.90;;;;;;5044888;28;20044;-42
2022/04/15 12:23:11;;;;;;;5.38;3.80;;;13.10;99.90;;;;;;5048100;28;20028;-43
2022/04/15 12:31:24;;;;;;;7.68;4.63;;;13.30;99.90;;;;;;5047826;28;20510;-42
2022/04/15 12:33:50;;;;;;;4.78;4.25;;;13.40;99.90;;;;;;5029342;28;20029;-44
2022/04/15 12:36:17;;;;;;;6.85;4.22;;;13.40;99.90;;;;;;5045617;28;20131;-44
2022/04/15 12:39:04;;;;;;;5.75;4.70;;;13.40;99.90;;;;;;5027891;28;20611;-40
2022/04/15 12:41:41;;;;;;;6.68;4.53;;;13.30;99.90;;;;;;5044344;28;20044;-42
2022/04/15 12:44:27;;;;;;;5.60;4.10;;;13.30;99.90;;;;;;5048042;28;20036;-42
2022/04/15 12:47:02;;;;;;;4.65;4.05;;;13.30;99.90;;;;;;5047581;28;20385;-41
2022/04/15 12:49:35;;;;;;;5.75;4.22;;;13.40;99.90;;;;;;5052720;28;20043;-42
2022/04/15 12:52:12;;;;;;;5.82;4.50;;;13.40;99.90;;;;;;5049400;28;20033;-42